createdAt,value
2022-12-11T00:01:25.404Z,26.52
2022-12-11T00:03:52.063Z,27.70
2022-12-11T00:06:21.732Z,28.00
2022-12-11T00:08:51.467Z,29.88
2022-12-11T00:11:17.964Z,23.30
2022-12-11T00:13:44.593Z,28.08
2022-12-11T00:16:11.592Z,25.25
2022-12-11T00:18:38.575Z,23.08
2022-12-11T00:21:07.643Z,25.48
2022-12-11T00:23:37.573Z,22.25
2022-12-11T00:26:09.398Z,23.48
2022-12-11T00:28:36.210Z,22.15
2022-12-11T00:31:07.736Z,18.15
2022-12-11T00:33:34.573Z,21.23
2022-12-11T00:36:01.388Z,16.20
2022-12-11T00:38:28.587Z,18.85
2022-12-11T00:41:01.000Z,15.85
2022-12-11T00:43:27.458Z,18.20
2022-12-11T00:45:54.087Z,18.13
2022-12-11T00:48:20.599Z,18.60
2022-12-11T00:50:47.172Z,16.70
2022-12-11T00:53:13.817Z,17.42
2022-12-11T00:55:42.158Z,15.20
2022-12-11T00:58:09.275Z,14.18
2022-12-11T01:00:36.148Z,15.00
2022-12-11T01:03:03.181Z,15.25
2022-12-11T01:05:29.777Z,16.17
2022-12-11T01:07:56.329Z,13.70
2022-12-11T01:10:25.672Z,16.63
2022-12-11T01:12:58.302Z,15.98
2022-12-11T01:15:28.117Z,17.25
2022-12-11T01:17:55.340Z,17.17
2022-12-11T01:20:22.865Z,17.98
2022-12-11T01:22:53.669Z,20.73
2022-12-11T01:25:20.176Z,17.80
2022-12-11T01:27:46.965Z,13.85
2022-12-11T01:30:14.159Z,17.25
2022-12-11T01:32:40.617Z,13.50
2022-12-11T01:35:08.819Z,13.30
2022-12-11T01:37:35.539Z,16.65
2022-12-11T01:40:03.926Z,19.65
2022-12-11T01:42:30.599Z,16.45
2022-12-11T01:45:26.728Z,12.18
2022-12-11T01:48:08.345Z,15.43
2022-12-11T01:50:41.106Z,17.00
2022-12-11T01:53:12.478Z,17.55
2022-12-11T01:55:39.970Z,18.95
2022-12-11T01:58:07.062Z,17.38
2022-12-11T02:00:33.580Z,19.45
2022-12-11T02:03:00.153Z,20.42
2022-12-11T02:05:26.645Z,18.52
2022-12-11T02:07:58.688Z,20.02
2022-12-11T02:10:38.231Z,18.58
2022-12-11T02:13:13.325Z,19.33
2022-12-11T02:15:56.616Z,18.27
2022-12-11T02:18:47.391Z,21.20
2022-12-11T02:21:26.207Z,21.17
2022-12-11T02:24:18.353Z,20.52
2022-12-11T02:27:03.292Z,22.48
2022-12-11T02:29:39.512Z,18.63
2022-12-11T02:32:35.273Z,17.35
2022-12-11T02:35:24.351Z,22.17
2022-12-11T02:38:02.917Z,22.33
2022-12-11T02:40:33.103Z,20.00
2022-12-11T02:43:03.430Z,20.60
2022-12-11T02:45:32.324Z,21.58
2022-12-11T02:48:02.271Z,20.52
2022-12-11T02:50:30.167Z,19.92
2022-12-11T02:52:59.640Z,21.27
2022-12-11T02:55:28.229Z,19.88
2022-12-11T02:58:14.700Z,19.80
2022-12-11T03:00:41.153Z,20.15
2022-12-11T03:03:07.977Z,16.27
2022-12-11T03:05:35.228Z,19.42
2022-12-11T03:08:02.333Z,18.38
2022-12-11T03:10:28.857Z,17.83
2022-12-11T03:12:57.782Z,20.15
2022-12-11T03:15:36.201Z,20.13
2022-12-11T03:18:49.556Z,16.88
2022-12-11T03:21:27.547Z,19.58
2022-12-11T03:24:21.206Z,18.25
2022-12-11T03:27:17.674Z,17.85
2022-12-11T03:29:59.231Z,19.23
2022-12-11T03:32:35.980Z,17.83
2022-12-11T03:35:13.667Z,20.48
2022-12-11T03:37:42.306Z,21.05
2022-12-11T03:40:14.816Z,19.77
2022-12-11T03:42:43.773Z,21.50
2022-12-11T03:45:11.942Z,22.38
2022-12-11T03:47:40.798Z,22.58
2022-12-11T03:50:10.354Z,22.35
2022-12-11T03:52:45.593Z,20.40
2022-12-11T03:55:14.916Z,22.90
2022-12-11T03:57:41.404Z,20.42
2022-12-11T04:00:12.119Z,21.40
2022-12-11T04:02:38.909Z,21.67
2022-12-11T04:05:05.831Z,21.70
2022-12-11T04:07:32.404Z,21.10
2022-12-11T04:09:59.110Z,20.30
2022-12-11T04:12:25.618Z,21.35
2022-12-11T04:15:04.145Z,21.58
2022-12-11T04:17:55.782Z,20.05
2022-12-11T04:20:45.560Z,20.25
2022-12-11T04:23:33.880Z,18.77
2022-12-11T04:26:08.081Z,19.10
2022-12-11T04:28:35.751Z,18.27
2022-12-11T04:31:02.918Z,17.45
2022-12-11T04:33:29.601Z,17.30
2022-12-11T04:36:00.279Z,18.95
2022-12-11T04:38:27.400Z,18.08
2022-12-11T04:41:02.150Z,16.42
2022-12-11T04:43:29.120Z,17.45
2022-12-11T04:46:07.176Z,17.70
2022-12-11T04:48:34.677Z,17.65
2022-12-11T04:51:01.201Z,17.52
2022-12-11T04:53:28.271Z,17.38
2022-12-11T04:55:55.179Z,16.45
2022-12-11T04:58:22.342Z,18.33
2022-12-11T05:00:48.809Z,17.48
2022-12-11T05:03:15.373Z,18.88
2022-12-11T05:05:48.136Z,19.38
2022-12-11T05:08:14.647Z,18.48
2022-12-11T05:10:45.756Z,18.95
2022-12-11T05:13:15.042Z,19.95
2022-12-11T05:15:41.563Z,19.67
2022-12-11T05:18:08.068Z,18.17
2022-12-11T05:20:34.556Z,15.82
2022-12-11T05:23:01.047Z,18.63
2022-12-11T05:25:27.490Z,18.40
2022-12-11T05:27:53.989Z,17.55
2022-12-11T05:30:20.502Z,18.70
2022-12-11T05:32:47.009Z,18.05
2022-12-11T05:35:13.700Z,18.90
2022-12-11T05:37:40.947Z,19.10
2022-12-11T05:40:07.988Z,17.77
2022-12-11T05:42:35.016Z,17.92
2022-12-11T05:45:01.539Z,17.58
2022-12-11T05:47:28.074Z,17.67
2022-12-11T05:49:54.565Z,17.00
2022-12-11T05:52:21.687Z,18.33
2022-12-11T05:54:51.043Z,17.50
2022-12-11T05:57:17.789Z,16.60
2022-12-11T05:59:45.229Z,13.48
2022-12-11T06:02:11.782Z,13.18
2022-12-11T06:04:38.313Z,16.20
2022-12-11T06:07:04.771Z,18.80
2022-12-11T06:09:31.273Z,15.50
2022-12-11T06:11:57.735Z,17.45
2022-12-11T06:14:24.192Z,15.93
2022-12-11T06:16:50.894Z,14.15
2022-12-11T06:19:18.585Z,15.95
2022-12-11T06:21:45.974Z,16.65
2022-12-11T06:24:12.559Z,15.77
2022-12-11T06:26:39.195Z,16.02
2022-12-11T06:29:09.217Z,16.23
2022-12-11T06:31:39.378Z,15.40
2022-12-11T06:34:06.073Z,15.23
2022-12-11T06:36:32.652Z,15.02
2022-12-11T06:38:59.084Z,14.90
2022-12-11T06:41:25.816Z,15.82
2022-12-11T06:43:52.475Z,14.65
2022-12-11T06:46:20.111Z,15.15
2022-12-11T06:48:47.976Z,15.30
2022-12-11T06:51:17.031Z,13.98
2022-12-11T06:53:44.130Z,14.80
2022-12-11T06:56:14.272Z,16.13
2022-12-11T06:58:42.415Z,13.38
2022-12-11T07:01:19.147Z,13.55
2022-12-11T07:03:45.866Z,13.63
2022-12-11T07:06:12.884Z,14.30
2022-12-11T07:08:39.516Z,14.75
2022-12-11T07:11:09.546Z,15.10
2022-12-11T07:13:36.372Z,11.10
2022-12-11T07:16:04.723Z,12.82
2022-12-11T07:18:34.573Z,14.05
2022-12-11T07:21:01.172Z,12.65
2022-12-11T07:23:28.733Z,13.15
2022-12-11T07:25:56.571Z,13.13
2022-12-11T07:28:23.322Z,13.38
2022-12-11T07:30:50.032Z,13.13
2022-12-11T07:33:16.538Z,14.93
2022-12-11T07:35:43.087Z,15.07
2022-12-11T07:38:09.584Z,15.75
2022-12-11T07:40:36.077Z,14.95
2022-12-11T07:43:02.725Z,14.75
2022-12-11T07:45:29.627Z,15.07
2022-12-11T07:47:56.258Z,15.18
2022-12-11T07:50:23.109Z,14.32
2022-12-11T07:52:49.570Z,12.00
2022-12-11T07:55:16.173Z,13.98
2022-12-11T07:57:42.638Z,11.82
2022-12-11T08:00:10.599Z,11.88
2022-12-11T08:02:37.891Z,12.70
2022-12-11T08:05:04.973Z,14.40
2022-12-11T08:07:34.393Z,13.85
2022-12-11T08:10:01.008Z,14.23
2022-12-11T08:12:27.444Z,12.48
2022-12-11T08:14:53.892Z,10.85
2022-12-11T08:17:23.373Z,10.25
2022-12-11T08:19:53.942Z,12.43
2022-12-11T08:22:20.395Z,9.85
2022-12-11T08:24:46.930Z,10.73
2022-12-11T08:27:13.386Z,11.95
2022-12-11T08:29:39.901Z,11.32
2022-12-11T08:32:11.915Z,7.53
2022-12-11T08:34:38.847Z,9.32
2022-12-11T08:37:05.368Z,11.18
2022-12-11T08:39:31.902Z,12.30
2022-12-11T08:41:58.669Z,11.57
2022-12-11T08:44:26.767Z,12.18
2022-12-11T08:46:53.276Z,9.98
2022-12-11T08:49:19.727Z,11.88
2022-12-11T08:51:46.227Z,9.70
2022-12-11T08:54:12.793Z,8.35
2022-12-11T08:56:39.340Z,13.65
2022-12-11T08:59:06.249Z,12.82
2022-12-11T09:01:32.967Z,11.00
2022-12-11T09:03:59.454Z,12.40
2022-12-11T09:06:29.248Z,14.13
2022-12-11T09:08:58.451Z,12.70
2022-12-11T09:11:28.252Z,11.63
2022-12-11T09:13:54.936Z,11.90
2022-12-11T09:16:23.502Z,10.93
2022-12-11T09:18:51.849Z,14.10
2022-12-11T09:21:20.980Z,14.65
2022-12-11T09:23:48.241Z,13.75
2022-12-11T09:26:16.899Z,15.02
2022-12-11T09:28:46.683Z,13.38
2022-12-11T09:31:25.742Z,13.25
2022-12-11T09:33:55.351Z,11.35
2022-12-11T09:36:22.804Z,12.40
2022-12-11T09:38:49.518Z,13.80
2022-12-11T09:41:22.043Z,12.05
2022-12-11T09:43:51.460Z,13.30
2022-12-11T09:46:21.604Z,14.10
2022-12-11T09:48:53.544Z,13.98
2022-12-11T09:51:26.079Z,14.90
2022-12-11T09:53:56.754Z,13.70
2022-12-11T09:57:18.671Z,11.45
2022-12-11T09:59:52.739Z,11.27
2022-12-11T10:02:32.420Z,14.20
2022-12-11T10:05:24.169Z,14.13
2022-12-11T10:08:06.109Z,13.05
2022-12-11T10:10:42.901Z,14.50
2022-12-11T10:13:15.169Z,12.52
2022-12-11T10:16:06.667Z,10.90
2022-12-11T10:18:33.883Z,9.15
2022-12-11T10:21:03.180Z,14.10
2022-12-11T10:23:38.227Z,10.18
2022-12-11T10:26:14.193Z,15.00
2022-12-11T10:28:40.710Z,9.35
2022-12-11T10:31:19.140Z,13.23
2022-12-11T10:34:02.122Z,14.43
2022-12-11T10:36:35.629Z,14.20
2022-12-11T10:39:03.213Z,11.43
2022-12-11T10:41:39.280Z,11.63
2022-12-11T10:44:21.995Z,10.50
2022-12-11T10:47:02.650Z,9.88
2022-12-11T10:49:31.124Z,11.65
2022-12-11T10:52:01.349Z,13.40
2022-12-11T10:54:27.752Z,14.98
2022-12-11T10:56:54.896Z,11.75
2022-12-11T10:59:32.024Z,11.27
2022-12-11T11:01:58.757Z,10.98
2022-12-11T11:04:35.657Z,15.93
2022-12-11T11:07:31.488Z,12.95
2022-12-11T11:10:27.450Z,12.15
2022-12-11T11:13:01.584Z,12.93
2022-12-11T11:15:31.393Z,13.50
2022-12-11T11:18:16.694Z,14.40
2022-12-11T11:20:47.869Z,13.30
2022-12-11T11:23:16.454Z,11.73
2022-12-11T11:25:52.473Z,11.75
2022-12-11T11:28:26.998Z,15.35
2022-12-11T11:31:08.438Z,13.63
2022-12-11T11:33:38.001Z,12.38
2022-12-11T11:36:07.735Z,12.50
2022-12-11T11:39:20.480Z,12.32
2022-12-11T11:41:51.805Z,10.43
2022-12-11T11:44:44.284Z,9.40
2022-12-11T11:47:34.584Z,10.73
2022-12-11T11:50:08.434Z,9.00
2022-12-11T11:52:44.204Z,12.10
2022-12-11T11:55:35.451Z,13.35
2022-12-11T11:58:13.968Z,15.23
2022-12-11T12:00:40.605Z,14.48
2022-12-11T12:03:13.857Z,13.63
2022-12-11T12:05:40.294Z,13.95
2022-12-11T12:08:12.860Z,14.57
2022-12-11T12:10:58.015Z,10.38
2022-12-11T12:13:54.561Z,9.45
2022-12-11T12:16:52.330Z,14.02
2022-12-11T12:19:24.044Z,9.95
2022-12-11T12:21:53.036Z,11.55
2022-12-11T12:24:43.643Z,10.38
2022-12-11T12:27:51.084Z,14.20
2022-12-11T12:30:22.102Z,14.98
2022-12-11T12:33:04.196Z,15.75
2022-12-11T12:35:36.677Z,13.93
2022-12-11T12:38:09.428Z,14.65
2022-12-11T12:41:02.179Z,12.93
2022-12-11T12:43:40.822Z,14.32
2022-12-11T12:46:35.511Z,14.63
2022-12-11T12:49:03.586Z,12.88
2022-12-11T12:51:30.947Z,15.32
2022-12-11T12:54:00.475Z,15.15
2022-12-11T12:56:30.596Z,12.80
2022-12-11T12:58:57.732Z,10.82
2022-12-11T13:01:27.478Z,11.05
2022-12-11T13:03:57.545Z,10.75
2022-12-11T13:06:40.767Z,9.02
2022-12-11T13:09:28.026Z,9.52
2022-12-11T13:11:59.516Z,8.50
2022-12-11T13:14:33.734Z,8.65
2022-12-11T13:17:34.960Z,9.40
2022-12-11T13:20:20.804Z,8.30
2022-12-11T13:23:11.660Z,11.63
2022-12-11T13:25:55.248Z,9.27
2022-12-11T13:31:01.416Z,13.13
2022-12-11T13:33:30.377Z,11.68
2022-12-11T13:36:14.965Z,12.18
2022-12-11T13:38:50.990Z,8.98
2022-12-11T13:41:19.531Z,9.88
2022-12-11T13:43:48.820Z,14.02
2022-12-11T13:46:21.183Z,10.80
2022-12-11T13:48:53.765Z,9.88
2022-12-11T13:51:22.909Z,11.02
2022-12-11T13:53:49.801Z,12.02
2022-12-11T13:56:18.895Z,9.88
2022-12-11T13:58:45.523Z,11.00
2022-12-11T14:01:32.692Z,11.20
2022-12-11T14:04:08.365Z,11.88
2022-12-11T14:06:36.958Z,10.70
2022-12-11T14:09:05.513Z,10.18
2022-12-11T14:11:38.577Z,9.23
2022-12-11T14:14:08.217Z,10.77
2022-12-11T14:16:35.026Z,9.65
2022-12-11T14:19:05.374Z,16.10
2022-12-11T14:21:32.159Z,8.30
2022-12-11T14:24:03.333Z,10.32
2022-12-11T14:29:00.995Z,9.02
2022-12-11T14:31:30.141Z,12.77
2022-12-11T14:34:13.804Z,16.52
2022-12-11T14:39:16.981Z,10.18
2022-12-11T14:41:52.832Z,10.10
2022-12-11T14:44:23.750Z,13.57
2022-12-11T14:46:54.675Z,12.60
2022-12-11T14:49:33.578Z,12.88
2022-12-11T14:52:00.564Z,14.57
2022-12-11T14:54:41.638Z,12.43
2022-12-11T14:57:15.240Z,11.82
2022-12-11T14:59:47.122Z,11.95
2022-12-11T15:02:29.606Z,11.15
2022-12-11T15:05:19.299Z,12.68
2022-12-11T15:08:16.250Z,16.65
2022-12-11T15:10:56.020Z,11.05
2022-12-11T15:13:24.595Z,10.75
2022-12-11T15:15:52.981Z,9.30
2022-12-11T15:18:22.634Z,8.90
2022-12-11T15:20:54.666Z,7.78
2022-12-11T15:23:21.480Z,10.88
2022-12-11T15:25:53.541Z,9.13
2022-12-11T15:28:35.714Z,8.90
2022-12-11T15:31:25.084Z,8.95
2022-12-11T15:33:52.029Z,8.15
2022-12-11T15:36:30.392Z,10.32
2022-12-11T15:38:57.480Z,8.95
2022-12-11T15:41:24.898Z,6.53
2022-12-11T15:43:58.926Z,7.53
2022-12-11T15:46:26.425Z,7.28
2022-12-11T15:48:53.581Z,9.45
2022-12-11T15:51:20.026Z,7.63
2022-12-11T15:53:46.461Z,6.80
2022-12-11T15:56:16.400Z,6.63
2022-12-11T15:58:48.991Z,6.25
2022-12-11T16:01:15.505Z,6.32
2022-12-11T16:03:42.051Z,7.57
2022-12-11T16:06:13.413Z,6.90
2022-12-11T16:08:39.916Z,6.90
2022-12-11T16:11:06.495Z,8.77
2022-12-11T16:13:32.911Z,7.78
2022-12-11T16:15:59.454Z,6.45
2022-12-11T16:18:26.504Z,6.97
2022-12-11T16:20:53.134Z,7.35
2022-12-11T16:23:19.765Z,9.55
2022-12-11T16:25:47.018Z,8.82
2022-12-11T16:28:15.361Z,8.07
2022-12-11T16:30:43.487Z,8.40
2022-12-11T16:33:13.159Z,7.07
2022-12-11T16:35:41.709Z,6.70
2022-12-11T16:38:09.993Z,7.47
2022-12-11T16:40:37.318Z,6.57
2022-12-11T16:43:05.112Z,6.70
2022-12-11T16:45:32.246Z,9.25
2022-12-11T16:47:58.819Z,9.75
2022-12-11T16:50:25.972Z,8.15
2022-12-11T16:52:52.493Z,8.48
2022-12-11T16:55:22.149Z,7.35
2022-12-11T16:57:48.659Z,9.50
2022-12-11T17:00:15.804Z,7.80
2022-12-11T17:02:42.439Z,7.05
2022-12-11T17:05:09.301Z,6.40
2022-12-11T17:07:35.958Z,6.70
2022-12-11T17:10:03.272Z,7.38
2022-12-11T17:12:30.450Z,8.10
2022-12-11T17:14:57.383Z,7.78
2022-12-11T17:17:24.768Z,11.25
2022-12-11T17:19:51.273Z,8.98
2022-12-11T17:22:17.831Z,9.13
2022-12-11T17:24:44.404Z,7.72
2022-12-11T17:27:10.982Z,8.15
2022-12-11T17:29:37.898Z,7.55
2022-12-11T17:32:04.725Z,8.73
2022-12-11T17:34:37.572Z,8.13
2022-12-11T17:37:04.999Z,9.60
2022-12-11T17:39:31.726Z,8.48
2022-12-11T17:41:58.359Z,7.55
2022-12-11T17:44:26.623Z,7.38
2022-12-11T17:46:53.478Z,7.70
2022-12-11T17:49:20.060Z,8.68
2022-12-11T17:51:46.654Z,7.68
2022-12-11T17:54:13.324Z,8.63
2022-12-11T17:56:40.543Z,8.82
2022-12-11T17:59:07.100Z,10.52
2022-12-11T18:01:33.933Z,8.45
2022-12-11T18:04:01.905Z,8.25
2022-12-11T18:06:28.736Z,8.95
2022-12-11T18:08:55.324Z,10.63
2022-12-11T18:11:22.919Z,8.15
2022-12-11T18:13:51.958Z,8.15
2022-12-11T18:16:26.204Z,7.72
2022-12-11T18:18:53.515Z,9.27
2022-12-11T18:21:23.363Z,13.45
2022-12-11T18:23:50.991Z,17.60
2022-12-11T18:26:19.078Z,12.43
2022-12-11T18:28:46.237Z,11.27
2022-12-11T18:31:13.692Z,11.45
2022-12-11T18:33:42.504Z,13.77
2022-12-11T18:36:09.793Z,11.63
2022-12-11T18:38:36.298Z,8.82
2022-12-11T18:41:05.137Z,10.75
2022-12-11T18:43:31.696Z,9.57
2022-12-11T18:45:58.204Z,8.63
2022-12-11T18:48:24.651Z,7.75
2022-12-11T18:50:51.830Z,7.68
2022-12-11T18:53:19.575Z,7.80
2022-12-11T18:55:48.246Z,7.63
2022-12-11T18:58:17.652Z,11.48
2022-12-11T19:00:44.854Z,12.38
2022-12-11T19:03:13.624Z,11.98
2022-12-11T19:05:43.728Z,15.00
2022-12-11T19:08:12.630Z,13.02
2022-12-11T19:10:46.452Z,9.73
2022-12-11T19:13:13.709Z,12.70
2022-12-11T19:15:42.792Z,14.48
2022-12-11T19:18:09.748Z,10.13
2022-12-11T19:20:55.424Z,11.80
2022-12-11T19:23:24.492Z,14.00
2022-12-11T19:25:51.040Z,17.27
2022-12-11T19:28:17.634Z,17.58
2022-12-11T19:30:48.776Z,17.45
2022-12-11T19:35:42.979Z,15.82
2022-12-11T19:38:09.851Z,11.05
2022-12-11T19:40:45.015Z,14.98
2022-12-11T19:43:11.873Z,12.73
2022-12-11T19:45:38.486Z,12.85
2022-12-11T19:48:05.672Z,11.70
2022-12-11T19:50:32.166Z,12.65
2022-12-11T19:52:58.701Z,11.95
2022-12-11T19:55:25.127Z,14.02
2022-12-11T19:57:51.664Z,16.67
2022-12-11T20:00:18.877Z,20.38
2022-12-11T20:02:45.402Z,16.73
2022-12-11T20:05:13.188Z,13.88
2022-12-11T20:07:40.125Z,13.30
2022-12-11T20:10:07.193Z,12.05
2022-12-11T20:12:33.766Z,11.20
2022-12-11T20:15:00.257Z,10.27
2022-12-11T20:17:26.814Z,10.35
2022-12-11T20:19:53.289Z,10.55
2022-12-11T20:22:19.807Z,11.15
2022-12-11T20:24:46.279Z,11.18
2022-12-11T20:27:12.778Z,15.00
2022-12-11T20:29:39.488Z,15.80
2022-12-11T20:32:06.698Z,13.27
2022-12-11T20:34:33.278Z,11.35
2022-12-11T20:37:00.384Z,13.23
2022-12-11T20:39:27.138Z,11.38
2022-12-11T20:41:53.666Z,11.38
2022-12-11T20:44:20.412Z,10.75
2022-12-11T20:46:46.977Z,13.90
2022-12-11T20:49:13.440Z,12.18
2022-12-11T20:51:40.298Z,12.25
2022-12-11T20:54:07.039Z,9.48
2022-12-11T20:56:33.573Z,9.73
2022-12-11T20:59:00.851Z,10.55
2022-12-11T21:01:30.688Z,10.95
2022-12-11T21:03:58.539Z,14.00
2022-12-11T21:06:31.019Z,11.57
2022-12-11T21:09:03.191Z,11.25
2022-12-11T21:11:29.775Z,9.35
2022-12-11T21:13:56.390Z,10.30
2022-12-11T21:16:23.613Z,9.40
2022-12-11T21:18:50.558Z,9.25
2022-12-11T21:21:17.637Z,8.82
2022-12-11T21:23:44.992Z,8.55
2022-12-11T21:26:12.038Z,9.75
2022-12-11T21:28:38.731Z,9.23
2022-12-11T21:31:08.309Z,10.55
2022-12-11T21:33:35.764Z,10.15
2022-12-11T21:36:03.512Z,10.05
2022-12-11T21:38:30.187Z,9.00
2022-12-11T21:40:56.725Z,10.65
2022-12-11T21:43:24.124Z,12.40
2022-12-11T21:46:07.042Z,10.93
2022-12-11T21:48:33.671Z,12.38
2022-12-11T21:51:15.518Z,12.88
2022-12-11T21:53:42.991Z,13.57
2022-12-11T21:56:15.332Z,15.07
2022-12-11T21:58:42.511Z,20.92
2022-12-11T22:01:23.213Z,18.42
2022-12-11T22:03:50.790Z,15.68
2022-12-11T22:06:17.411Z,17.13
2022-12-11T22:08:44.141Z,15.45
2022-12-11T22:11:10.893Z,19.77
2022-12-11T22:13:37.342Z,17.38
2022-12-11T22:16:03.985Z,16.10
2022-12-11T22:18:30.523Z,15.80
2022-12-11T22:20:58.009Z,14.13
2022-12-11T22:23:24.925Z,14.20
2022-12-11T22:25:52.651Z,15.23
2022-12-11T22:28:19.490Z,15.40
2022-12-11T22:30:46.290Z,16.30
2022-12-11T22:33:12.991Z,14.52
2022-12-11T22:35:39.681Z,18.65
2022-12-11T22:38:06.785Z,16.45
2022-12-11T22:40:33.383Z,18.90
2022-12-11T22:43:00.286Z,14.15
2022-12-11T22:45:26.800Z,17.85
2022-12-11T22:47:53.262Z,14.63
2022-12-11T22:50:19.796Z,12.07
2022-12-11T22:52:46.343Z,11.30
2022-12-11T22:55:13.135Z,10.75
2022-12-11T22:57:39.838Z,10.98
2022-12-11T23:00:13.211Z,11.68
2022-12-11T23:02:39.852Z,14.95
2022-12-11T23:05:06.893Z,16.05
2022-12-11T23:07:34.031Z,11.63
2022-12-11T23:10:01.035Z,12.85
2022-12-11T23:12:27.559Z,15.23
2022-12-11T23:14:54.012Z,14.35
2022-12-11T23:17:20.505Z,11.57
2022-12-11T23:19:47.028Z,10.98
2022-12-11T23:22:13.857Z,10.90
2022-12-11T23:24:40.636Z,11.85
2022-12-11T23:27:07.342Z,12.27
2022-12-11T23:29:34.131Z,12.45
2022-12-11T23:32:00.928Z,10.55
2022-12-11T23:34:27.333Z,11.90
2022-12-11T23:36:54.012Z,11.85
2022-12-11T23:39:20.467Z,11.43
2022-12-11T23:41:46.939Z,11.85
2022-12-11T23:44:13.430Z,11.77
2022-12-11T23:46:39.849Z,14.52
2022-12-11T23:49:06.362Z,14.77
2022-12-11T23:51:32.813Z,13.63
2022-12-11T23:53:59.250Z,13.18
2022-12-11T23:56:28.339Z,15.85
2022-12-11T23:58:55.741Z,17.88
